createdAt,value
2024-02-15T00:01:00.510Z,25.38
2024-02-15T00:03:27.444Z,25.31
2024-02-15T00:05:54.444Z,25.25
2024-02-15T00:08:21.518Z,25.19
2024-02-15T00:10:48.550Z,25.13
2024-02-15T00:13:15.542Z,25.06
2024-02-15T00:15:42.524Z,25.00
2024-02-15T00:18:09.666Z,24.94
2024-02-15T00:20:36.870Z,24.88
2024-02-15T00:23:03.940Z,24.81
2024-02-15T00:25:30.961Z,24.75
2024-02-15T00:27:57.932Z,24.75
2024-02-15T00:30:24.947Z,24.69
2024-02-15T00:32:52.081Z,24.63
2024-02-15T00:35:19.312Z,24.56
2024-02-15T00:37:46.597Z,24.56
2024-02-15T00:40:13.568Z,24.50
2024-02-15T00:42:40.631Z,24.44
2024-02-15T00:45:07.627Z,24.44
2024-02-15T00:47:34.590Z,24.38
2024-02-15T00:50:01.880Z,24.38
2024-02-15T00:52:28.920Z,24.31
2024-02-15T00:54:55.842Z,24.31
2024-02-15T00:57:22.857Z,24.25
2024-02-15T00:59:49.863Z,24.25
2024-02-15T01:02:16.896Z,24.19
2024-02-15T01:04:43.983Z,24.19
2024-02-15T01:07:10.941Z,24.13
2024-02-15T01:09:37.869Z,24.13
2024-02-15T01:12:04.970Z,24.06
2024-02-15T01:14:32.121Z,24.06
2024-02-15T01:16:59.144Z,24.00
2024-02-15T01:19:26.174Z,24.00
2024-02-15T01:21:53.127Z,23.94
2024-02-15T01:24:20.111Z,23.94
2024-02-15T01:26:47.101Z,23.94
2024-02-15T01:29:14.111Z,23.88
2024-02-15T01:31:41.032Z,23.88
2024-02-15T01:34:08.152Z,23.81
2024-02-15T01:36:35.189Z,23.81
2024-02-15T01:39:02.203Z,23.81
2024-02-15T01:41:29.238Z,23.75
2024-02-15T01:43:56.222Z,23.75
2024-02-15T01:46:23.218Z,23.75
2024-02-15T01:48:50.321Z,23.69
2024-02-15T01:51:17.518Z,23.69
2024-02-15T01:53:44.538Z,23.69
2024-02-15T01:56:11.509Z,23.63
2024-02-15T01:58:38.508Z,23.63
2024-02-15T02:01:05.469Z,23.56
2024-02-15T02:03:32.559Z,23.56
2024-02-15T02:05:59.954Z,23.56
2024-02-15T02:08:26.929Z,23.56
2024-02-15T02:10:53.915Z,23.50
2024-02-15T02:13:20.974Z,23.50
2024-02-15T02:15:47.952Z,23.50
2024-02-15T02:18:14.900Z,23.44
2024-02-15T02:20:41.978Z,23.44
2024-02-15T02:23:09.183Z,23.44
2024-02-15T02:25:36.215Z,23.44
2024-02-15T02:28:03.254Z,23.38
2024-02-15T02:30:30.250Z,23.38
2024-02-15T02:32:57.318Z,23.38
2024-02-15T02:35:24.293Z,23.31
2024-02-15T02:37:51.256Z,23.31
2024-02-15T02:40:18.268Z,23.31
2024-02-15T02:42:45.234Z,23.25
2024-02-15T02:45:12.219Z,23.25
2024-02-15T02:47:39.274Z,23.25
2024-02-15T02:50:06.234Z,23.19
2024-02-15T02:52:33.202Z,23.19
2024-02-15T02:55:00.165Z,23.19
2024-02-15T02:57:27.187Z,23.19
2024-02-15T02:59:54.241Z,23.13
2024-02-15T03:02:21.255Z,23.13
2024-02-15T03:04:48.214Z,23.13
2024-02-15T03:07:15.308Z,23.13
2024-02-15T03:09:42.271Z,23.06
2024-02-15T03:12:09.254Z,23.06
2024-02-15T03:14:36.245Z,23.06
2024-02-15T03:17:03.239Z,23.06
2024-02-15T03:19:30.179Z,23.00
2024-02-15T03:21:57.305Z,23.00
2024-02-15T03:24:24.233Z,23.00
2024-02-15T03:26:51.233Z,23.00
2024-02-15T03:29:18.265Z,23.00
2024-02-15T03:31:45.214Z,22.94
2024-02-15T03:34:12.344Z,22.94
2024-02-15T03:36:39.496Z,22.94
2024-02-15T03:39:06.537Z,22.94
2024-02-15T03:41:33.527Z,22.88
2024-02-15T03:44:00.611Z,22.88
2024-02-15T03:46:27.605Z,22.88
2024-02-15T03:48:54.541Z,22.88
2024-02-15T03:51:21.592Z,22.81
2024-02-15T03:53:48.542Z,22.81
2024-02-15T03:56:15.468Z,22.81
2024-02-15T03:58:42.459Z,22.81
2024-02-15T04:01:09.594Z,22.81
2024-02-15T04:03:36.573Z,22.75
2024-02-15T04:06:03.655Z,22.75
2024-02-15T04:08:30.724Z,22.75
2024-02-15T04:10:57.778Z,22.75
2024-02-15T04:13:24.759Z,22.69
2024-02-15T04:15:51.734Z,22.69
2024-02-15T04:18:18.769Z,22.69
2024-02-15T04:20:45.837Z,22.69
2024-02-15T04:23:12.836Z,22.63
2024-02-15T04:25:39.846Z,22.63
2024-02-15T04:28:06.812Z,22.63
2024-02-15T04:30:33.809Z,22.63
2024-02-15T04:33:01.039Z,22.63
2024-02-15T04:35:28.030Z,22.56
2024-02-15T04:37:55.005Z,22.56
2024-02-15T04:40:22.015Z,22.00
2024-02-15T04:42:49.024Z,21.00
2024-02-15T04:45:16.179Z,20.69
2024-02-15T04:47:43.778Z,20.56
2024-02-15T04:50:10.925Z,20.44
2024-02-15T04:52:38.055Z,20.44
2024-02-15T04:55:05.087Z,20.44
2024-02-15T04:57:32.046Z,20.44
2024-02-15T04:59:59.063Z,20.44
2024-02-15T05:02:26.153Z,22.75
2024-02-15T05:04:53.099Z,31.06
2024-02-15T05:07:20.068Z,34.13
2024-02-15T05:09:47.068Z,33.44
2024-02-15T05:12:14.059Z,32.63
2024-02-15T05:14:41.145Z,30.56
2024-02-15T05:17:08.197Z,26.63
2024-02-15T05:19:35.210Z,25.81
2024-02-15T05:22:02.192Z,30.81
2024-02-15T05:24:29.144Z,34.25
2024-02-15T05:26:56.195Z,34.81
2024-02-15T05:29:23.196Z,34.56
2024-02-15T05:31:50.129Z,32.06
2024-02-15T05:34:17.260Z,29.00
2024-02-15T05:36:44.364Z,28.63
2024-02-15T05:39:11.479Z,33.06
2024-02-15T05:41:38.519Z,35.31
2024-02-15T05:44:05.506Z,35.63
2024-02-15T05:46:32.486Z,34.50
2024-02-15T05:48:59.612Z,33.19
2024-02-15T05:51:26.761Z,32.75
2024-02-15T05:53:53.808Z,33.75
2024-02-15T05:56:20.827Z,35.50
2024-02-15T05:58:47.805Z,36.25
2024-02-15T06:01:14.827Z,35.88
2024-02-15T06:03:42.228Z,35.13
2024-02-15T06:06:09.759Z,35.25
2024-02-15T06:08:36.938Z,36.13
2024-02-15T06:11:04.015Z,36.44
2024-02-15T06:13:30.997Z,36.56
2024-02-15T06:15:57.967Z,36.69
2024-02-15T06:18:25.080Z,36.81
2024-02-15T06:20:54.096Z,37.06
2024-02-15T06:23:22.790Z,37.25
2024-02-15T06:25:49.773Z,37.44
2024-02-15T06:28:16.773Z,37.63
2024-02-15T06:30:43.802Z,37.81
2024-02-15T06:33:11.227Z,38.00
2024-02-15T06:35:38.252Z,38.13
2024-02-15T06:38:05.267Z,38.31
2024-02-15T06:40:32.288Z,38.25
2024-02-15T06:42:59.285Z,38.31
2024-02-15T06:45:26.297Z,38.13
2024-02-15T06:47:53.517Z,38.19
2024-02-15T06:50:20.592Z,38.25
2024-02-15T06:52:47.569Z,38.06
2024-02-15T06:55:14.535Z,38.06
2024-02-15T06:57:41.539Z,38.19
2024-02-15T07:00:08.708Z,38.25
2024-02-15T07:02:35.741Z,38.31
2024-02-15T07:05:02.929Z,38.31
2024-02-15T07:07:29.946Z,38.38
2024-02-15T07:09:56.888Z,38.13
2024-02-15T07:12:24.057Z,38.00
2024-02-15T07:14:51.120Z,38.00
2024-02-15T07:17:18.108Z,38.06
2024-02-15T07:19:45.270Z,38.06
2024-02-15T07:22:12.252Z,38.13
2024-02-15T07:24:39.221Z,38.19
2024-02-15T07:27:06.245Z,38.19
2024-02-15T07:29:33.208Z,38.13
2024-02-15T07:32:00.218Z,37.94
2024-02-15T07:34:27.459Z,37.75
2024-02-15T07:36:54.435Z,37.56
2024-02-15T07:39:21.461Z,37.38
2024-02-15T07:41:48.526Z,37.25
2024-02-15T07:44:15.550Z,37.06
2024-02-15T07:46:42.637Z,36.88
2024-02-15T07:49:09.807Z,36.81
2024-02-15T07:51:37.022Z,36.94
2024-02-15T07:54:04.048Z,36.94
2024-02-15T07:56:31.030Z,36.88
2024-02-15T07:58:58.086Z,36.88
2024-02-15T08:01:25.976Z,36.88
2024-02-15T08:03:53.267Z,37.00
2024-02-15T08:06:20.372Z,37.06
2024-02-15T08:08:47.477Z,37.06
2024-02-15T08:11:14.432Z,37.13
2024-02-15T08:13:41.416Z,37.13
2024-02-15T08:16:08.462Z,37.13
2024-02-15T08:18:35.508Z,37.19
2024-02-15T08:21:02.620Z,37.19
2024-02-15T08:23:29.658Z,37.25
2024-02-15T08:25:56.617Z,37.31
2024-02-15T08:28:25.683Z,37.38
2024-02-15T08:30:52.844Z,37.44
2024-02-15T08:33:19.854Z,37.50
2024-02-15T08:35:47.369Z,37.56
2024-02-15T08:38:15.027Z,37.56
2024-02-15T08:40:42.008Z,37.56
2024-02-15T08:43:08.984Z,37.69
2024-02-15T08:45:36.022Z,37.75
2024-02-15T08:48:03.169Z,37.81
2024-02-15T08:50:30.287Z,37.81
2024-02-15T08:52:57.270Z,37.88
2024-02-15T08:55:24.241Z,37.88
2024-02-15T08:57:51.197Z,37.94
2024-02-15T09:00:18.514Z,37.94
2024-02-15T09:02:45.887Z,38.00
2024-02-15T09:05:12.916Z,37.81
2024-02-15T09:07:39.896Z,37.69
2024-02-15T09:10:06.908Z,37.56
2024-02-15T09:12:33.945Z,37.44
2024-02-15T09:15:01.095Z,37.31
2024-02-15T09:17:28.211Z,37.13
2024-02-15T09:19:55.260Z,37.00
2024-02-15T09:22:22.288Z,36.81
2024-02-15T09:24:49.270Z,36.63
2024-02-15T09:27:16.262Z,36.56
2024-02-15T09:29:43.295Z,36.50
2024-02-15T09:32:10.278Z,36.63
2024-02-15T09:34:37.274Z,36.88
2024-02-15T09:37:04.378Z,36.94
2024-02-15T09:39:31.362Z,36.94
2024-02-15T09:41:58.371Z,37.00
2024-02-15T09:44:25.376Z,37.06
2024-02-15T09:46:52.364Z,37.19
2024-02-15T09:49:19.711Z,37.31
2024-02-15T09:51:47.099Z,37.38
2024-02-15T09:54:14.129Z,37.44
2024-02-15T09:56:41.197Z,37.50
2024-02-15T09:59:08.326Z,37.56
2024-02-15T10:01:35.322Z,37.63
2024-02-15T10:04:02.313Z,37.75
2024-02-15T10:06:29.490Z,37.81
2024-02-15T10:08:56.582Z,37.88
2024-02-15T10:11:23.693Z,38.00
2024-02-15T10:13:50.788Z,38.06
2024-02-15T10:16:17.997Z,38.00
2024-02-15T10:18:45.221Z,38.06
2024-02-15T10:21:12.340Z,38.00
2024-02-15T10:23:39.430Z,37.75
2024-02-15T10:26:06.400Z,37.69
2024-02-15T10:28:33.448Z,37.75
2024-02-15T10:31:00.383Z,37.81
2024-02-15T10:33:27.629Z,37.81
2024-02-15T10:35:54.884Z,37.75
2024-02-15T10:38:21.827Z,37.63
2024-02-15T10:40:49.054Z,37.44
2024-02-15T10:43:16.066Z,37.31
2024-02-15T10:45:43.064Z,37.13
2024-02-15T10:48:10.280Z,37.00
2024-02-15T10:50:37.384Z,36.81
2024-02-15T10:53:04.345Z,36.63
2024-02-15T10:55:31.322Z,36.44
2024-02-15T10:57:58.302Z,36.50
2024-02-15T11:00:25.396Z,36.56
2024-02-15T11:02:52.540Z,36.63
2024-02-15T11:05:19.573Z,36.63
2024-02-15T11:07:46.769Z,36.63
2024-02-15T11:10:13.947Z,36.69
2024-02-15T11:12:42.311Z,36.75
2024-02-15T11:15:09.450Z,36.81
2024-02-15T11:17:36.576Z,36.88
2024-02-15T11:20:03.637Z,36.88
2024-02-15T11:22:30.739Z,36.94
2024-02-15T11:24:57.675Z,37.00
2024-02-15T11:27:24.755Z,37.13
2024-02-15T11:29:51.852Z,37.19
2024-02-15T11:32:18.882Z,37.25
2024-02-15T11:34:45.924Z,37.31
2024-02-15T11:37:12.950Z,37.31
2024-02-15T11:39:39.960Z,37.25
2024-02-15T11:42:06.980Z,37.19
2024-02-15T11:44:33.971Z,37.06
2024-02-15T11:47:01.013Z,36.94
2024-02-15T11:49:28.117Z,36.81
2024-02-15T11:51:55.084Z,36.69
2024-02-15T11:54:22.123Z,36.50
2024-02-15T11:56:50.533Z,36.38
2024-02-15T11:59:17.830Z,36.25
2024-02-15T12:01:46.171Z,36.38
2024-02-15T12:04:13.112Z,36.44
2024-02-15T12:06:40.204Z,36.44
2024-02-15T12:09:07.255Z,36.50
2024-02-15T12:11:34.286Z,36.56
2024-02-15T12:14:01.302Z,36.63
2024-02-15T12:16:28.236Z,36.75
2024-02-15T12:18:55.377Z,36.81
2024-02-15T12:21:22.684Z,36.88
2024-02-15T12:23:49.691Z,36.88
2024-02-15T12:26:16.661Z,36.94
2024-02-15T12:28:46.459Z,36.94
2024-02-15T12:31:15.117Z,37.06
2024-02-15T12:33:42.208Z,37.13
2024-02-15T12:36:09.537Z,37.13
2024-02-15T12:38:36.743Z,36.94
2024-02-15T12:41:03.749Z,36.88
2024-02-15T12:43:30.854Z,36.81
2024-02-15T12:45:57.904Z,36.69
2024-02-15T12:48:24.949Z,36.56
2024-02-15T12:50:51.975Z,36.44
2024-02-15T12:53:18.968Z,36.25
2024-02-15T12:55:45.948Z,36.06
2024-02-15T12:58:12.873Z,35.94
2024-02-15T13:00:40.127Z,35.81
2024-02-15T13:03:07.539Z,35.63
2024-02-15T13:05:34.821Z,35.44
2024-02-15T13:08:01.894Z,35.38
2024-02-15T13:10:28.944Z,35.50
2024-02-15T13:12:55.911Z,35.50
2024-02-15T13:15:23.226Z,35.56
2024-02-15T13:17:50.469Z,35.56
2024-02-15T13:20:17.510Z,35.56
2024-02-15T13:22:44.481Z,35.63
2024-02-15T13:25:11.452Z,35.69
2024-02-15T13:27:38.425Z,35.75
2024-02-15T13:30:05.477Z,35.81
2024-02-15T13:32:32.578Z,35.88
2024-02-15T13:34:59.689Z,35.94
2024-02-15T13:37:26.733Z,35.88
2024-02-15T13:39:53.739Z,35.81
2024-02-15T13:42:20.734Z,35.63
2024-02-15T13:44:47.739Z,35.50
2024-02-15T13:47:14.715Z,35.38
2024-02-15T13:49:41.765Z,35.25
2024-02-15T13:52:08.776Z,35.13
2024-02-15T13:54:35.741Z,35.19
2024-02-15T13:57:02.773Z,35.25
2024-02-15T13:59:29.799Z,35.44
2024-02-15T14:01:56.726Z,35.56
2024-02-15T14:04:23.720Z,35.63
2024-02-15T14:06:50.896Z,35.69
2024-02-15T14:09:17.999Z,35.81
2024-02-15T14:11:45.139Z,35.94
2024-02-15T14:14:12.335Z,36.00
2024-02-15T14:16:39.310Z,36.13
2024-02-15T14:19:06.368Z,36.25
2024-02-15T14:21:33.563Z,36.38
2024-02-15T14:24:00.671Z,36.50
2024-02-15T14:26:27.707Z,36.50
2024-02-15T14:28:54.669Z,36.63
2024-02-15T14:31:21.641Z,36.69
2024-02-15T14:33:48.798Z,36.75
2024-02-15T14:36:15.933Z,36.75
2024-02-15T14:38:43.100Z,36.75
2024-02-15T14:41:11.764Z,36.75
2024-02-15T14:43:40.022Z,36.69
2024-02-15T14:46:07.106Z,36.56
2024-02-15T14:48:34.272Z,36.44
2024-02-15T14:51:01.304Z,36.31
2024-02-15T14:53:28.339Z,36.19
2024-02-15T14:55:55.284Z,36.06
2024-02-15T14:58:22.266Z,35.94
2024-02-15T15:00:49.457Z,35.75
2024-02-15T15:03:16.922Z,35.75
2024-02-15T15:05:44.228Z,35.88
2024-02-15T15:08:11.179Z,35.94
2024-02-15T15:10:38.280Z,35.94
2024-02-15T15:13:05.272Z,35.94
2024-02-15T15:15:32.331Z,36.00
2024-02-15T15:17:59.387Z,36.06
2024-02-15T15:20:26.380Z,36.19
2024-02-15T15:22:53.325Z,36.25
2024-02-15T15:25:20.253Z,36.31
2024-02-15T15:27:47.266Z,36.44
2024-02-15T15:30:14.349Z,36.50
2024-02-15T15:32:41.484Z,36.56
2024-02-15T15:35:08.547Z,36.56
2024-02-15T15:37:35.558Z,36.56
2024-02-15T15:40:02.524Z,36.44
2024-02-15T15:42:29.646Z,36.31
2024-02-15T15:44:56.679Z,36.19
2024-02-15T15:47:23.680Z,36.00
2024-02-15T15:49:50.677Z,35.88
2024-02-15T15:52:17.689Z,35.75
2024-02-15T15:54:44.670Z,35.63
2024-02-15T15:57:11.704Z,35.56
2024-02-15T15:59:38.821Z,35.63
2024-02-15T16:02:05.945Z,35.69
2024-02-15T16:04:33.013Z,35.69
2024-02-15T16:07:00.025Z,35.69
2024-02-15T16:09:27.123Z,35.75
2024-02-15T16:11:54.608Z,35.81
2024-02-15T16:14:21.802Z,35.88
2024-02-15T16:16:48.771Z,36.00
2024-02-15T16:19:15.865Z,36.06
2024-02-15T16:21:42.976Z,36.13
2024-02-15T16:24:09.969Z,36.19
2024-02-15T16:26:37.024Z,36.31
2024-02-15T16:29:04.022Z,36.38
2024-02-15T16:31:31.012Z,36.38
2024-02-15T16:33:58.454Z,36.38
2024-02-15T16:36:25.570Z,36.25
2024-02-15T16:38:52.684Z,36.13
2024-02-15T16:41:19.680Z,36.00
2024-02-15T16:43:46.635Z,35.88
2024-02-15T16:46:13.657Z,35.81
2024-02-15T16:48:40.710Z,35.69
2024-02-15T16:51:07.835Z,35.50
2024-02-15T16:53:34.977Z,35.44
2024-02-15T16:56:01.987Z,35.56
2024-02-15T16:58:28.933Z,35.56
2024-02-15T17:00:56.057Z,35.63
2024-02-15T17:03:23.107Z,35.69
2024-02-15T17:05:50.148Z,35.75
2024-02-15T17:08:17.144Z,35.88
2024-02-15T17:10:44.132Z,35.88
2024-02-15T17:13:11.208Z,35.81
2024-02-15T17:15:38.239Z,35.75
2024-02-15T17:18:05.627Z,35.75
2024-02-15T17:20:32.920Z,35.75
2024-02-15T17:22:59.912Z,35.81
2024-02-15T17:25:27.409Z,35.81
2024-02-15T17:27:54.435Z,35.88
2024-02-15T17:30:21.548Z,35.94
2024-02-15T17:32:48.670Z,35.94
2024-02-15T17:35:15.731Z,35.88
2024-02-15T17:37:42.678Z,35.75
2024-02-15T17:40:09.678Z,35.63
2024-02-15T17:42:36.700Z,35.69
2024-02-15T17:45:03.755Z,35.69
2024-02-15T17:47:30.792Z,35.63
2024-02-15T17:49:57.856Z,35.69
2024-02-15T17:52:24.831Z,35.75
2024-02-15T17:54:51.813Z,35.81
2024-02-15T17:57:18.840Z,35.88
2024-02-15T17:59:45.846Z,35.94
2024-02-15T18:02:12.804Z,35.94
2024-02-15T18:04:39.866Z,36.00
2024-02-15T18:07:06.940Z,36.06
2024-02-15T18:09:34.104Z,36.13
2024-02-15T18:12:01.166Z,36.25
2024-02-15T18:14:28.163Z,36.38
2024-02-15T18:16:55.136Z,36.44
2024-02-15T18:19:22.175Z,36.56
2024-02-15T18:21:49.203Z,36.63
2024-02-15T18:24:16.225Z,36.69
2024-02-15T18:26:43.213Z,36.75
2024-02-15T18:29:10.157Z,36.81
2024-02-15T18:31:37.170Z,36.88
2024-02-15T18:34:07.094Z,36.94
2024-02-15T18:36:34.414Z,37.00
2024-02-15T18:39:01.532Z,37.13
2024-02-15T18:41:28.525Z,37.25
2024-02-15T18:43:55.462Z,37.31
2024-02-15T18:46:22.450Z,37.25
2024-02-15T18:48:49.613Z,37.19
2024-02-15T18:51:16.866Z,37.00
2024-02-15T18:53:44.015Z,36.88
2024-02-15T18:56:11.008Z,36.75
2024-02-15T18:58:37.958Z,36.63
2024-02-15T19:01:05.021Z,36.44
2024-02-15T19:03:32.214Z,36.06
2024-02-15T19:05:59.308Z,35.25
2024-02-15T19:08:26.329Z,34.75
2024-02-15T19:10:53.335Z,34.44
2024-02-15T19:13:20.333Z,34.88
2024-02-15T19:15:47.335Z,35.56
2024-02-15T19:18:14.385Z,35.81
2024-02-15T19:20:41.436Z,36.00
2024-02-15T19:23:08.399Z,36.13
2024-02-15T19:25:35.448Z,36.25
2024-02-15T19:28:02.442Z,36.38
2024-02-15T19:30:29.496Z,36.50
2024-02-15T19:32:56.667Z,36.63
2024-02-15T19:35:23.686Z,36.69
2024-02-15T19:37:50.673Z,36.75
2024-02-15T19:40:18.310Z,36.81
2024-02-15T19:42:46.204Z,36.94
2024-02-15T19:45:13.228Z,37.06
2024-02-15T19:47:40.300Z,37.13
2024-02-15T19:50:07.342Z,37.19
2024-02-15T19:52:34.356Z,37.25
2024-02-15T19:55:01.494Z,37.31
2024-02-15T19:57:28.480Z,37.44
2024-02-15T19:59:55.625Z,37.50
2024-02-15T20:02:22.870Z,37.50
2024-02-15T20:04:49.962Z,37.25
2024-02-15T20:07:16.988Z,36.94
2024-02-15T20:09:47.611Z,36.81
2024-02-15T20:12:15.465Z,36.75
2024-02-15T20:14:43.217Z,36.56
2024-02-15T20:17:10.411Z,36.31
2024-02-15T20:19:37.462Z,36.06
2024-02-15T20:22:04.516Z,35.81
2024-02-15T20:24:31.604Z,35.56
2024-02-15T20:26:58.679Z,35.31
2024-02-15T20:29:25.838Z,35.06
2024-02-15T20:31:52.940Z,34.81
2024-02-15T20:34:19.947Z,34.56
2024-02-15T20:36:46.967Z,34.25
2024-02-15T20:39:14.030Z,34.00
2024-02-15T20:41:41.084Z,33.75
2024-02-15T20:44:08.025Z,33.56
2024-02-15T20:46:35.019Z,33.31
2024-02-15T20:49:02.139Z,33.06
2024-02-15T20:51:29.247Z,32.88
2024-02-15T20:53:56.451Z,32.63
2024-02-15T20:56:23.436Z,32.38
2024-02-15T20:58:50.414Z,32.13
2024-02-15T21:01:17.449Z,31.88
2024-02-15T21:03:44.585Z,31.69
2024-02-15T21:06:11.634Z,31.44
2024-02-15T21:08:38.658Z,31.25
2024-02-15T21:11:05.719Z,31.06
2024-02-15T21:13:32.699Z,30.88
2024-02-15T21:15:59.733Z,30.69
2024-02-15T21:18:26.865Z,30.56
2024-02-15T21:20:53.970Z,30.38
2024-02-15T21:23:20.958Z,30.25
2024-02-15T21:25:47.887Z,30.13
2024-02-15T21:28:14.902Z,30.00
2024-02-15T21:30:41.975Z,29.88
2024-02-15T21:33:09.200Z,29.75
2024-02-15T21:35:36.200Z,29.63
2024-02-15T21:38:03.193Z,29.56
2024-02-15T21:40:30.193Z,29.50
2024-02-15T21:42:57.127Z,29.38
2024-02-15T21:45:24.112Z,29.31
2024-02-15T21:47:51.221Z,29.25
2024-02-15T21:50:18.304Z,29.19
2024-02-15T21:52:45.305Z,29.13
2024-02-15T21:55:12.376Z,29.00
2024-02-15T21:57:39.317Z,28.88
2024-02-15T22:00:06.311Z,28.81
2024-02-15T22:02:33.329Z,28.69
2024-02-15T22:05:00.359Z,28.56
2024-02-15T22:07:27.326Z,28.38
2024-02-15T22:09:54.293Z,28.25
2024-02-15T22:12:21.273Z,28.13
2024-02-15T22:14:48.338Z,28.00
2024-02-15T22:17:15.289Z,27.88
2024-02-15T22:19:42.425Z,27.75
2024-02-15T22:22:09.616Z,27.63
2024-02-15T22:24:36.587Z,27.50
2024-02-15T22:27:03.574Z,27.38
2024-02-15T22:29:30.583Z,27.31
2024-02-15T22:31:57.559Z,27.19
2024-02-15T22:34:24.537Z,27.06
2024-02-15T22:36:51.605Z,27.00
2024-02-15T22:39:18.558Z,26.88
2024-02-15T22:41:45.661Z,26.81
2024-02-15T22:44:12.706Z,26.75
2024-02-15T22:46:39.632Z,26.63
2024-02-15T22:49:06.745Z,26.56
2024-02-15T22:51:33.937Z,26.50
2024-02-15T22:54:00.942Z,26.44
2024-02-15T22:56:28.008Z,26.38
2024-02-15T22:58:55.046Z,26.31
2024-02-15T23:01:22.089Z,26.31
2024-02-15T23:03:49.193Z,26.25
2024-02-15T23:06:16.281Z,26.19
2024-02-15T23:08:43.336Z,26.13
2024-02-15T23:11:10.336Z,26.13
2024-02-15T23:13:37.320Z,26.06
2024-02-15T23:16:04.259Z,26.00
2024-02-15T23:18:31.330Z,25.94
2024-02-15T23:20:58.473Z,25.94
2024-02-15T23:23:25.457Z,25.81
2024-02-15T23:25:52.498Z,25.75
2024-02-15T23:28:19.422Z,25.69
2024-02-15T23:30:46.373Z,25.63
2024-02-15T23:33:13.546Z,25.50
2024-02-15T23:35:40.574Z,25.44
2024-02-15T23:38:07.563Z,25.38
2024-02-15T23:40:34.507Z,25.25
2024-02-15T23:43:01.436Z,25.19
2024-02-15T23:45:28.443Z,25.13
2024-02-15T23:47:55.602Z,25.06
2024-02-15T23:50:22.590Z,25.00
2024-02-15T23:52:49.554Z,24.94
2024-02-15T23:55:16.513Z,24.88
2024-02-15T23:57:43.482Z,24.81
